sensor_id;sensor_type;location;lat;lon;timestamp;temperature;humidity
14670;DHT22;7423;48.722;9.350;2023-08-06T00:01:27;20.40;99.90
14670;DHT22;7423;48.722;9.350;2023-08-06T00:03:54;20.40;99.90
14670;DHT22;7423;48.722;9.350;2023-08-06T00:06:22;20.40;99.90
14670;DHT22;7423;48.722;9.350;2023-08-06T00:08:48;20.40;99.90
14670;DHT22;7423;48.722;9.350;2023-08-06T00:11:15;20.30;99.90
14670;DHT22;7423;48.722;9.350;2023-08-06T00:13:42;20.40;99.90
14670;DHT22;7423;48.722;9.350;2023-08-06T00:16:13;20.40;99.90
14670;DHT22;7423;48.722;9.350;2023-08-06T00:18:40;20.30;99.90
14670;DHT22;7423;48.722;9.350;2023-08-06T00:21:08;20.30;99.90
14670;DHT22;7423;48.722;9.350;2023-08-06T00:23:35;20.30;99.90
14670;DHT22;7423;48.722;9.350;2023-08-06T00:26:02;20.30;99.90
14670;DHT22;7423;48.722;9.350;2023-08-06T00:28:28;20.30;99.90
14670;DHT22;7423;48.722;9.350;2023-08-06T00:30:55;20.30;99.90
14670;DHT22;7423;48.722;9.350;2023-08-06T00:33:23;20.20;99.90
14670;DHT22;7423;48.722;9.350;2023-08-06T00:35:51;20.30;99.90
14670;DHT22;7423;48.722;9.350;2023-08-06T00:38:18;20.30;99.90
14670;DHT22;7423;48.722;9.350;2023-08-06T00:40:44;20.20;99.90
14670;DHT22;7423;48.722;9.350;2023-08-06T00:43:11;20.20;99.90
14670;DHT22;7423;48.722;9.350;2023-08-06T00:45:38;20.20;99.90
14670;DHT22;7423;48.722;9.350;2023-08-06T00:48:05;20.20;99.90
14670;DHT22;7423;48.722;9.350;2023-08-06T00:50:33;20.20;99.90
14670;DHT22;7423;48.722;9.350;2023-08-06T00:53:01;20.30;99.90
14670;DHT22;7423;48.722;9.350;2023-08-06T00:55:29;20.30;99.90
14670;DHT22;7423;48.722;9.350;2023-08-06T00:57:56;20.20;99.90
14670;DHT22;7423;48.722;9.350;2023-08-06T01:00:25;20.10;99.90
14670;DHT22;7423;48.722;9.350;2023-08-06T01:02:53;20.00;99.90
14670;DHT22;7423;48.722;9.350;2023-08-06T01:05:21;20.00;99.90
14670;DHT22;7423;48.722;9.350;2023-08-06T01:11:07;19.90;99.90
14670;DHT22;7423;48.722;9.350;2023-08-06T01:13:47;19.90;99.90
14670;DHT22;7423;48.722;9.350;2023-08-06T01:16:19;19.80;99.90
14670;DHT22;7423;48.722;9.350;2023-08-06T01:18:48;19.80;99.90
14670;DHT22;7423;48.722;9.350;2023-08-06T01:21:18;19.80;99.90
14670;DHT22;7423;48.722;9.350;2023-08-06T01:23:47;19.80;99.90
14670;DHT22;7423;48.722;9.350;2023-08-06T01:26:39;19.70;99.90
14670;DHT22;7423;48.722;9.350;2023-08-06T01:29:15;19.70;99.90
14670;DHT22;7423;48.722;9.350;2023-08-06T01:31:48;19.70;99.90
14670;DHT22;7423;48.722;9.350;2023-08-06T01:34:24;19.70;99.90
14670;DHT22;7423;48.722;9.350;2023-08-06T01:36:52;19.70;99.90
14670;DHT22;7423;48.722;9.350;2023-08-06T01:39:19;19.70;99.90
14670;DHT22;7423;48.722;9.350;2023-08-06T01:41:50;19.60;99.90
14670;DHT22;7423;48.722;9.350;2023-08-06T01:44:18;19.60;99.90
14670;DHT22;7423;48.722;9.350;2023-08-06T01:46:45;19.60;99.90
14670;DHT22;7423;48.722;9.350;2023-08-06T01:49:11;19.60;99.90
14670;DHT22;7423;48.722;9.350;2023-08-06T01:51:38;19.60;99.90
14670;DHT22;7423;48.722;9.350;2023-08-06T01:54:05;19.50;99.90
14670;DHT22;7423;48.722;9.350;2023-08-06T01:56:32;19.60;99.90
14670;DHT22;7423;48.722;9.350;2023-08-06T01:58:59;19.70;99.90
14670;DHT22;7423;48.722;9.350;2023-08-06T02:01:30;19.90;99.90
14670;DHT22;7423;48.722;9.350;2023-08-06T02:03:57;20.00;99.90
14670;DHT22;7423;48.722;9.350;2023-08-06T02:06:24;19.90;99.90
14670;DHT22;7423;48.722;9.350;2023-08-06T02:08:51;19.90;99.90
14670;DHT22;7423;48.722;9.350;2023-08-06T02:11:17;19.80;99.90
14670;DHT22;7423;48.722;9.350;2023-08-06T02:13:46;19.60;99.90
14670;DHT22;7423;48.722;9.350;2023-08-06T02:16:13;19.50;99.90
14670;DHT22;7423;48.722;9.350;2023-08-06T02:18:40;19.50;99.90
14670;DHT22;7423;48.722;9.350;2023-08-06T02:21:06;19.40;99.90
14670;DHT22;7423;48.722;9.350;2023-08-06T02:23:33;19.40;99.90
14670;DHT22;7423;48.722;9.350;2023-08-06T02:26:02;19.50;99.90
14670;DHT22;7423;48.722;9.350;2023-08-06T02:28:30;19.50;99.90
14670;DHT22;7423;48.722;9.350;2023-08-06T02:30:58;19.40;99.90
14670;DHT22;7423;48.722;9.350;2023-08-06T02:33:25;19.40;99.90
14670;DHT22;7423;48.722;9.350;2023-08-06T02:35:59;19.20;99.90
14670;DHT22;7423;48.722;9.350;2023-08-06T02:38:27;19.20;99.90
14670;DHT22;7423;48.722;9.350;2023-08-06T02:40:54;19.10;99.90
14670;DHT22;7423;48.722;9.350;2023-08-06T02:43:21;19.10;99.90
14670;DHT22;7423;48.722;9.350;2023-08-06T02:45:48;19.10;99.90
14670;DHT22;7423;48.722;9.350;2023-08-06T02:48:15;19.10;99.90
14670;DHT22;7423;48.722;9.350;2023-08-06T02:50:44;19.10;99.90
14670;DHT22;7423;48.722;9.350;2023-08-06T02:53:11;19.10;99.90
14670;DHT22;7423;48.722;9.350;2023-08-06T02:55:38;19.10;99.90
14670;DHT22;7423;48.722;9.350;2023-08-06T02:58:13;19.10;99.90
14670;DHT22;7423;48.722;9.350;2023-08-06T03:00:41;19.10;99.90
14670;DHT22;7423;48.722;9.350;2023-08-06T03:03:08;19.10;99.90
14670;DHT22;7423;48.722;9.350;2023-08-06T03:05:35;19.10;99.90
14670;DHT22;7423;48.722;9.350;2023-08-06T03:08:02;19.10;99.90
14670;DHT22;7423;48.722;9.350;2023-08-06T03:10:29;19.10;99.90
14670;DHT22;7423;48.722;9.350;2023-08-06T03:12:56;19.00;99.90
14670;DHT22;7423;48.722;9.350;2023-08-06T03:15:23;19.00;99.90
14670;DHT22;7423;48.722;9.350;2023-08-06T03:17:50;19.00;99.90
14670;DHT22;7423;48.722;9.350;2023-08-06T03:20:17;19.00;99.90
14670;DHT22;7423;48.722;9.350;2023-08-06T03:22:43;19.00;99.90
14670;DHT22;7423;48.722;9.350;2023-08-06T03:25:10;19.10;99.90
14670;DHT22;7423;48.722;9.350;2023-08-06T03:27:37;19.10;99.90
14670;DHT22;7423;48.722;9.350;2023-08-06T03:30:05;19.10;99.90
14670;DHT22;7423;48.722;9.350;2023-08-06T03:32:32;19.00;99.90
14670;DHT22;7423;48.722;9.350;2023-08-06T03:34:59;19.10;99.90
14670;DHT22;7423;48.722;9.350;2023-08-06T03:37:26;19.10;99.90
14670;DHT22;7423;48.722;9.350;2023-08-06T03:39:53;19.00;99.90
14670;DHT22;7423;48.722;9.350;2023-08-06T03:42:20;19.00;99.90
14670;DHT22;7423;48.722;9.350;2023-08-06T03:44:46;19.00;99.90
14670;DHT22;7423;48.722;9.350;2023-08-06T03:47:14;19.00;99.90
14670;DHT22;7423;48.722;9.350;2023-08-06T03:49:41;18.90;99.90
14670;DHT22;7423;48.722;9.350;2023-08-06T03:52:08;18.80;99.90
14670;DHT22;7423;48.722;9.350;2023-08-06T03:54:35;18.90;99.90
14670;DHT22;7423;48.722;9.350;2023-08-06T03:57:02;18.90;99.90
14670;DHT22;7423;48.722;9.350;2023-08-06T03:59:29;18.90;99.90
14670;DHT22;7423;48.722;9.350;2023-08-06T04:01:55;18.90;99.90
14670;DHT22;7423;48.722;9.350;2023-08-06T04:04:22;18.90;99.90
14670;DHT22;7423;48.722;9.350;2023-08-06T04:06:49;18.90;99.90
14670;DHT22;7423;48.722;9.350;2023-08-06T04:09:16;19.00;99.90
14670;DHT22;7423;48.722;9.350;2023-08-06T04:11:43;19.00;99.90
14670;DHT22;7423;48.722;9.350;2023-08-06T04:14:10;19.00;99.90
14670;DHT22;7423;48.722;9.350;2023-08-06T04:16:36;19.00;99.90
14670;DHT22;7423;48.722;9.350;2023-08-06T04:19:03;18.90;99.90
14670;DHT22;7423;48.722;9.350;2023-08-06T04:21:30;18.90;99.90
14670;DHT22;7423;48.722;9.350;2023-08-06T04:23:57;19.00;99.90
14670;DHT22;7423;48.722;9.350;2023-08-06T04:26:24;18.90;99.90
14670;DHT22;7423;48.722;9.350;2023-08-06T04:28:51;19.00;99.90
14670;DHT22;7423;48.722;9.350;2023-08-06T04:31:18;19.00;99.90
14670;DHT22;7423;48.722;9.350;2023-08-06T04:33:45;19.00;99.90
14670;DHT22;7423;48.722;9.350;2023-08-06T04:36:12;19.00;99.90
14670;DHT22;7423;48.722;9.350;2023-08-06T04:38:38;19.00;99.90
14670;DHT22;7423;48.722;9.350;2023-08-06T04:41:08;19.10;99.90
14670;DHT22;7423;48.722;9.350;2023-08-06T04:43:34;19.20;99.90
14670;DHT22;7423;48.722;9.350;2023-08-06T04:46:01;19.20;99.90
14670;DHT22;7423;48.722;9.350;2023-08-06T04:48:28;19.10;99.90
14670;DHT22;7423;48.722;9.350;2023-08-06T04:50:55;19.20;99.90
14670;DHT22;7423;48.722;9.350;2023-08-06T04:53:22;19.10;99.90
14670;DHT22;7423;48.722;9.350;2023-08-06T04:55:49;19.00;99.90
14670;DHT22;7423;48.722;9.350;2023-08-06T04:58:15;19.00;99.90
14670;DHT22;7423;48.722;9.350;2023-08-06T05:00:42;19.00;99.90
14670;DHT22;7423;48.722;9.350;2023-08-06T05:03:09;19.00;99.90
14670;DHT22;7423;48.722;9.350;2023-08-06T05:05:36;19.00;99.90
14670;DHT22;7423;48.722;9.350;2023-08-06T05:08:03;18.90;99.90
14670;DHT22;7423;48.722;9.350;2023-08-06T05:10:30;18.90;99.90
14670;DHT22;7423;48.722;9.350;2023-08-06T05:12:57;18.90;99.90
14670;DHT22;7423;48.722;9.350;2023-08-06T05:15:24;18.90;99.90
14670;DHT22;7423;48.722;9.350;2023-08-06T05:17:52;18.90;99.90
14670;DHT22;7423;48.722;9.350;2023-08-06T05:20:20;18.90;99.90
14670;DHT22;7423;48.722;9.350;2023-08-06T05:22:47;18.90;99.90
14670;DHT22;7423;48.722;9.350;2023-08-06T05:25:15;18.80;99.90
14670;DHT22;7423;48.722;9.350;2023-08-06T05:27:41;18.80;99.90
14670;DHT22;7423;48.722;9.350;2023-08-06T05:30:09;18.80;99.90
14670;DHT22;7423;48.722;9.350;2023-08-06T05:32:37;18.80;99.90
14670;DHT22;7423;48.722;9.350;2023-08-06T05:35:04;18.80;99.90
14670;DHT22;7423;48.722;9.350;2023-08-06T05:37:31;18.80;99.90
14670;DHT22;7423;48.722;9.350;2023-08-06T05:39:58;18.90;99.90
14670;DHT22;7423;48.722;9.350;2023-08-06T05:42:25;18.80;99.90
14670;DHT22;7423;48.722;9.350;2023-08-06T05:44:51;18.80;99.90
14670;DHT22;7423;48.722;9.350;2023-08-06T05:47:18;18.80;99.90
14670;DHT22;7423;48.722;9.350;2023-08-06T05:49:46;18.70;99.90
14670;DHT22;7423;48.722;9.350;2023-08-06T05:52:13;18.70;99.90
14670;DHT22;7423;48.722;9.350;2023-08-06T05:54:39;18.70;99.90
14670;DHT22;7423;48.722;9.350;2023-08-06T05:57:07;18.80;99.90
14670;DHT22;7423;48.722;9.350;2023-08-06T05:59:33;18.80;99.90
14670;DHT22;7423;48.722;9.350;2023-08-06T06:02:00;18.90;99.90
14670;DHT22;7423;48.722;9.350;2023-08-06T06:04:28;18.90;99.90
14670;DHT22;7423;48.722;9.350;2023-08-06T06:06:55;18.90;99.90
14670;DHT22;7423;48.722;9.350;2023-08-06T06:09:21;18.90;99.90
14670;DHT22;7423;48.722;9.350;2023-08-06T06:11:48;18.90;99.90
14670;DHT22;7423;48.722;9.350;2023-08-06T06:14:17;19.00;99.90
14670;DHT22;7423;48.722;9.350;2023-08-06T06:16:45;19.10;99.90
14670;DHT22;7423;48.722;9.350;2023-08-06T06:19:12;19.00;99.90
14670;DHT22;7423;48.722;9.350;2023-08-06T06:21:39;19.10;99.90
14670;DHT22;7423;48.722;9.350;2023-08-06T06:24:06;19.00;99.90
14670;DHT22;7423;48.722;9.350;2023-08-06T06:26:34;19.00;99.90
14670;DHT22;7423;48.722;9.350;2023-08-06T06:29:01;18.90;99.90
14670;DHT22;7423;48.722;9.350;2023-08-06T06:31:29;18.90;99.90
14670;DHT22;7423;48.722;9.350;2023-08-06T06:33:56;19.00;99.90
14670;DHT22;7423;48.722;9.350;2023-08-06T06:36:23;19.00;99.90
14670;DHT22;7423;48.722;9.350;2023-08-06T06:38:50;19.00;99.90
14670;DHT22;7423;48.722;9.350;2023-08-06T06:41:17;19.00;99.90
14670;DHT22;7423;48.722;9.350;2023-08-06T06:43:44;18.90;99.90
14670;DHT22;7423;48.722;9.350;2023-08-06T06:46:11;19.00;99.90
14670;DHT22;7423;48.722;9.350;2023-08-06T06:48:38;18.90;99.90
14670;DHT22;7423;48.722;9.350;2023-08-06T06:51:05;18.80;99.90
14670;DHT22;7423;48.722;9.350;2023-08-06T06:53:32;18.90;99.90
14670;DHT22;7423;48.722;9.350;2023-08-06T06:56:03;18.80;99.90
14670;DHT22;7423;48.722;9.350;2023-08-06T06:58:31;18.80;99.90
14670;DHT22;7423;48.722;9.350;2023-08-06T07:00:58;18.70;99.90
14670;DHT22;7423;48.722;9.350;2023-08-06T07:03:25;18.70;99.90
14670;DHT22;7423;48.722;9.350;2023-08-06T07:05:57;18.70;99.90
14670;DHT22;7423;48.722;9.350;2023-08-06T07:08:25;18.70;99.90
14670;DHT22;7423;48.722;9.350;2023-08-06T07:11:00;18.70;99.90
14670;DHT22;7423;48.722;9.350;2023-08-06T07:13:28;18.70;99.90
14670;DHT22;7423;48.722;9.350;2023-08-06T07:15:55;18.80;99.90
14670;DHT22;7423;48.722;9.350;2023-08-06T07:18:23;18.70;99.90
14670;DHT22;7423;48.722;9.350;2023-08-06T07:20:54;18.80;99.90
14670;DHT22;7423;48.722;9.350;2023-08-06T07:23:23;18.60;99.90
14670;DHT22;7423;48.722;9.350;2023-08-06T07:25:51;18.60;99.90
14670;DHT22;7423;48.722;9.350;2023-08-06T07:28:18;18.50;99.90
14670;DHT22;7423;48.722;9.350;2023-08-06T07:30:45;18.50;99.90
14670;DHT22;7423;48.722;9.350;2023-08-06T07:33:12;18.30;99.90
14670;DHT22;7423;48.722;9.350;2023-08-06T07:35:39;18.20;99.90
14670;DHT22;7423;48.722;9.350;2023-08-06T07:38:06;18.30;99.90
14670;DHT22;7423;48.722;9.350;2023-08-06T07:40:35;18.30;99.90
14670;DHT22;7423;48.722;9.350;2023-08-06T07:43:03;18.30;99.90
14670;DHT22;7423;48.722;9.350;2023-08-06T07:45:36;18.20;99.90
14670;DHT22;7423;48.722;9.350;2023-08-06T07:48:04;18.20;99.90
14670;DHT22;7423;48.722;9.350;2023-08-06T07:50:31;18.20;99.90
14670;DHT22;7423;48.722;9.350;2023-08-06T07:52:58;18.20;99.90
14670;DHT22;7423;48.722;9.350;2023-08-06T07:55:25;18.20;99.90
14670;DHT22;7423;48.722;9.350;2023-08-06T07:57:53;18.20;99.90
14670;DHT22;7423;48.722;9.350;2023-08-06T08:00:20;18.40;99.90
14670;DHT22;7423;48.722;9.350;2023-08-06T08:02:47;18.40;99.90
14670;DHT22;7423;48.722;9.350;2023-08-06T08:05:14;18.40;99.90
14670;DHT22;7423;48.722;9.350;2023-08-06T08:07:41;18.30;99.90
14670;DHT22;7423;48.722;9.350;2023-08-06T08:10:08;18.30;99.90
14670;DHT22;7423;48.722;9.350;2023-08-06T08:12:35;18.20;99.90
14670;DHT22;7423;48.722;9.350;2023-08-06T08:15:02;18.20;99.90
14670;DHT22;7423;48.722;9.350;2023-08-06T08:17:29;18.40;99.90
14670;DHT22;7423;48.722;9.350;2023-08-06T08:19:56;18.40;99.90
14670;DHT22;7423;48.722;9.350;2023-08-06T08:22:23;18.50;99.90
14670;DHT22;7423;48.722;9.350;2023-08-06T08:24:50;18.50;99.90
14670;DHT22;7423;48.722;9.350;2023-08-06T08:27:17;18.50;99.90
14670;DHT22;7423;48.722;9.350;2023-08-06T08:29:44;18.50;99.90
14670;DHT22;7423;48.722;9.350;2023-08-06T08:32:11;18.50;99.90
14670;DHT22;7423;48.722;9.350;2023-08-06T08:34:38;18.60;99.90
14670;DHT22;7423;48.722;9.350;2023-08-06T08:37:04;18.50;99.90
14670;DHT22;7423;48.722;9.350;2023-08-06T08:39:32;18.60;99.90
14670;DHT22;7423;48.722;9.350;2023-08-06T08:41:59;18.50;99.90
14670;DHT22;7423;48.722;9.350;2023-08-06T08:44:27;18.60;99.90
14670;DHT22;7423;48.722;9.350;2023-08-06T08:46:55;18.60;99.90
14670;DHT22;7423;48.722;9.350;2023-08-06T08:49:24;18.50;99.90
14670;DHT22;7423;48.722;9.350;2023-08-06T08:51:54;18.50;99.90
14670;DHT22;7423;48.722;9.350;2023-08-06T08:54:24;18.50;99.90
14670;DHT22;7423;48.722;9.350;2023-08-06T08:56:51;18.60;99.90
14670;DHT22;7423;48.722;9.350;2023-08-06T08:59:18;18.60;99.90
14670;DHT22;7423;48.722;9.350;2023-08-06T09:01:47;18.60;99.90
14670;DHT22;7423;48.722;9.350;2023-08-06T09:04:18;18.60;99.90
14670;DHT22;7423;48.722;9.350;2023-08-06T09:06:47;18.50;99.90
14670;DHT22;7423;48.722;9.350;2023-08-06T09:09:31;18.50;99.90
14670;DHT22;7423;48.722;9.350;2023-08-06T09:12:00;18.50;99.90
14670;DHT22;7423;48.722;9.350;2023-08-06T09:14:29;18.30;99.90
14670;DHT22;7423;48.722;9.350;2023-08-06T09:16:56;18.40;99.90
14670;DHT22;7423;48.722;9.350;2023-08-06T09:19:24;18.40;99.90
14670;DHT22;7423;48.722;9.350;2023-08-06T09:21:53;18.50;99.90
14670;DHT22;7423;48.722;9.350;2023-08-06T09:24:22;18.50;99.90
14670;DHT22;7423;48.722;9.350;2023-08-06T09:26:49;18.60;99.90
14670;DHT22;7423;48.722;9.350;2023-08-06T09:29:16;18.70;99.90
14670;DHT22;7423;48.722;9.350;2023-08-06T09:31:45;18.70;99.90
14670;DHT22;7423;48.722;9.350;2023-08-06T09:36:54;18.80;99.90
14670;DHT22;7423;48.722;9.350;2023-08-06T09:39:26;18.80;99.90
14670;DHT22;7423;48.722;9.350;2023-08-06T09:41:58;18.90;99.90
14670;DHT22;7423;48.722;9.350;2023-08-06T09:44:27;18.90;99.90
14670;DHT22;7423;48.722;9.350;2023-08-06T09:46:57;19.00;99.90
14670;DHT22;7423;48.722;9.350;2023-08-06T09:51:59;18.90;99.90
14670;DHT22;7423;48.722;9.350;2023-08-06T09:54:27;18.80;99.90
14670;DHT22;7423;48.722;9.350;2023-08-06T09:56:56;18.90;99.90
14670;DHT22;7423;48.722;9.350;2023-08-06T09:59:24;18.90;99.90
14670;DHT22;7423;48.722;9.350;2023-08-06T10:01:51;18.80;99.90
14670;DHT22;7423;48.722;9.350;2023-08-06T10:04:20;18.90;99.90
14670;DHT22;7423;48.722;9.350;2023-08-06T10:06:52;19.00;99.90
14670;DHT22;7423;48.722;9.350;2023-08-06T10:09:19;18.90;99.90
14670;DHT22;7423;48.722;9.350;2023-08-06T10:11:51;18.90;99.90
14670;DHT22;7423;48.722;9.350;2023-08-06T10:14:32;18.80;99.90
14670;DHT22;7423;48.722;9.350;2023-08-06T10:17:00;18.90;99.90
14670;DHT22;7423;48.722;9.350;2023-08-06T10:19:28;18.90;99.90
14670;DHT22;7423;48.722;9.350;2023-08-06T10:22:09;19.00;99.90
14670;DHT22;7423;48.722;9.350;2023-08-06T10:27:31;19.00;99.90
14670;DHT22;7423;48.722;9.350;2023-08-06T10:30:22;19.00;99.90
14670;DHT22;7423;48.722;9.350;2023-08-06T10:32:56;18.90;99.90
14670;DHT22;7423;48.722;9.350;2023-08-06T10:38:16;18.80;99.90
14670;DHT22;7423;48.722;9.350;2023-08-06T10:41:01;18.70;99.90
14670;DHT22;7423;48.722;9.350;2023-08-06T10:43:33;18.60;99.90
14670;DHT22;7423;48.722;9.350;2023-08-06T10:46:02;18.50;99.90
14670;DHT22;7423;48.722;9.350;2023-08-06T10:48:34;18.50;99.90
14670;DHT22;7423;48.722;9.350;2023-08-06T10:51:03;18.50;99.90
14670;DHT22;7423;48.722;9.350;2023-08-06T10:53:33;18.60;99.90
14670;DHT22;7423;48.722;9.350;2023-08-06T10:56:01;18.60;99.90
14670;DHT22;7423;48.722;9.350;2023-08-06T10:58:33;18.60;99.90
14670;DHT22;7423;48.722;9.350;2023-08-06T11:01:00;18.60;99.90
14670;DHT22;7423;48.722;9.350;2023-08-06T11:03:27;18.70;99.90
14670;DHT22;7423;48.722;9.350;2023-08-06T11:05:55;18.60;99.90
14670;DHT22;7423;48.722;9.350;2023-08-06T11:08:32;18.70;99.90
14670;DHT22;7423;48.722;9.350;2023-08-06T11:11:14;18.70;99.90
14670;DHT22;7423;48.722;9.350;2023-08-06T11:13:46;18.70;99.90
14670;DHT22;7423;48.722;9.350;2023-08-06T11:16:15;18.80;99.90
14670;DHT22;7423;48.722;9.350;2023-08-06T11:18:44;18.90;99.90
14670;DHT22;7423;48.722;9.350;2023-08-06T11:21:11;18.90;99.90
14670;DHT22;7423;48.722;9.350;2023-08-06T11:23:39;18.90;99.90
14670;DHT22;7423;48.722;9.350;2023-08-06T11:26:07;18.80;99.90
14670;DHT22;7423;48.722;9.350;2023-08-06T11:28:34;18.70;99.90
14670;DHT22;7423;48.722;9.350;2023-08-06T11:31:01;18.70;99.90
14670;DHT22;7423;48.722;9.350;2023-08-06T11:33:30;18.60;99.90
14670;DHT22;7423;48.722;9.350;2023-08-06T11:35:59;18.60;99.90
14670;DHT22;7423;48.722;9.350;2023-08-06T11:38:29;18.70;99.90
14670;DHT22;7423;48.722;9.350;2023-08-06T11:40:57;18.60;99.90
14670;DHT22;7423;48.722;9.350;2023-08-06T11:43:24;18.60;99.90
14670;DHT22;7423;48.722;9.350;2023-08-06T11:45:51;18.60;99.90
14670;DHT22;7423;48.722;9.350;2023-08-06T11:48:20;18.60;99.90
14670;DHT22;7423;48.722;9.350;2023-08-06T11:50:47;18.70;99.90
14670;DHT22;7423;48.722;9.350;2023-08-06T11:53:14;18.70;99.90
14670;DHT22;7423;48.722;9.350;2023-08-06T11:55:42;18.60;99.90
14670;DHT22;7423;48.722;9.350;2023-08-06T11:58:10;18.50;99.90
14670;DHT22;7423;48.722;9.350;2023-08-06T12:00:42;18.70;99.90
14670;DHT22;7423;48.722;9.350;2023-08-06T12:03:10;18.50;99.90
14670;DHT22;7423;48.722;9.350;2023-08-06T12:05:37;18.60;99.90
14670;DHT22;7423;48.722;9.350;2023-08-06T12:08:05;18.50;99.90
14670;DHT22;7423;48.722;9.350;2023-08-06T12:10:32;18.50;99.90
14670;DHT22;7423;48.722;9.350;2023-08-06T12:13:00;18.40;99.90
14670;DHT22;7423;48.722;9.350;2023-08-06T12:15:27;18.30;99.90
14670;DHT22;7423;48.722;9.350;2023-08-06T12:17:56;18.30;99.90
14670;DHT22;7423;48.722;9.350;2023-08-06T12:20:23;18.30;99.90
14670;DHT22;7423;48.722;9.350;2023-08-06T12:22:51;18.40;99.90
14670;DHT22;7423;48.722;9.350;2023-08-06T12:25:18;18.50;99.90
14670;DHT22;7423;48.722;9.350;2023-08-06T12:27:46;18.60;99.90
14670;DHT22;7423;48.722;9.350;2023-08-06T12:30:13;18.60;99.90
14670;DHT22;7423;48.722;9.350;2023-08-06T12:32:40;18.50;99.90
14670;DHT22;7423;48.722;9.350;2023-08-06T12:35:08;18.50;99.90
14670;DHT22;7423;48.722;9.350;2023-08-06T12:37:35;18.40;99.90
14670;DHT22;7423;48.722;9.350;2023-08-06T12:40:05;18.50;99.90
14670;DHT22;7423;48.722;9.350;2023-08-06T12:42:53;18.40;99.90
14670;DHT22;7423;48.722;9.350;2023-08-06T12:45:20;18.30;99.90
14670;DHT22;7423;48.722;9.350;2023-08-06T12:47:48;18.40;99.90
14670;DHT22;7423;48.722;9.350;2023-08-06T12:50:16;18.20;99.90
14670;DHT22;7423;48.722;9.350;2023-08-06T12:52:44;18.20;99.90
14670;DHT22;7423;48.722;9.350;2023-08-06T12:55:11;18.20;99.90
14670;DHT22;7423;48.722;9.350;2023-08-06T12:57:38;18.20;99.90
14670;DHT22;7423;48.722;9.350;2023-08-06T13:00:22;18.20;99.90
14670;DHT22;7423;48.722;9.350;2023-08-06T13:02:49;18.30;99.90
14670;DHT22;7423;48.722;9.350;2023-08-06T13:05:16;18.40;99.90
14670;DHT22;7423;48.722;9.350;2023-08-06T13:07:43;18.60;99.90
14670;DHT22;7423;48.722;9.350;2023-08-06T13:10:10;18.70;99.90
14670;DHT22;7423;48.722;9.350;2023-08-06T13:12:37;18.50;99.90
14670;DHT22;7423;48.722;9.350;2023-08-06T13:15:04;18.60;99.90
14670;DHT22;7423;48.722;9.350;2023-08-06T13:17:31;18.60;99.90
14670;DHT22;7423;48.722;9.350;2023-08-06T13:19:58;18.60;99.90
14670;DHT22;7423;48.722;9.350;2023-08-06T13:22:25;18.50;99.90
14670;DHT22;7423;48.722;9.350;2023-08-06T13:24:52;18.60;99.90
14670;DHT22;7423;48.722;9.350;2023-08-06T13:27:19;18.60;99.90
14670;DHT22;7423;48.722;9.350;2023-08-06T13:29:46;18.60;99.90
14670;DHT22;7423;48.722;9.350;2023-08-06T13:32:13;18.60;99.90
14670;DHT22;7423;48.722;9.350;2023-08-06T13:34:40;18.60;99.90
14670;DHT22;7423;48.722;9.350;2023-08-06T13:37:06;18.70;99.90
14670;DHT22;7423;48.722;9.350;2023-08-06T13:39:33;18.70;99.90
14670;DHT22;7423;48.722;9.350;2023-08-06T13:42:00;18.70;99.90
14670;DHT22;7423;48.722;9.350;2023-08-06T13:44:27;18.70;99.90
14670;DHT22;7423;48.722;9.350;2023-08-06T13:46:55;18.70;99.90
14670;DHT22;7423;48.722;9.350;2023-08-06T13:49:22;18.70;99.90
14670;DHT22;7423;48.722;9.350;2023-08-06T13:51:49;18.80;99.90
14670;DHT22;7423;48.722;9.350;2023-08-06T13:54:16;18.90;99.90
14670;DHT22;7423;48.722;9.350;2023-08-06T13:56:43;19.00;99.90
14670;DHT22;7423;48.722;9.350;2023-08-06T13:59:10;18.90;99.90
14670;DHT22;7423;48.722;9.350;2023-08-06T14:01:40;18.90;99.90
14670;DHT22;7423;48.722;9.350;2023-08-06T14:04:17;19.00;99.90
14670;DHT22;7423;48.722;9.350;2023-08-06T14:06:44;19.00;99.90
14670;DHT22;7423;48.722;9.350;2023-08-06T14:09:11;18.80;99.90
14670;DHT22;7423;48.722;9.350;2023-08-06T14:11:41;18.80;99.90
14670;DHT22;7423;48.722;9.350;2023-08-06T14:14:08;19.00;99.90
14670;DHT22;7423;48.722;9.350;2023-08-06T14:16:35;19.00;99.90
14670;DHT22;7423;48.722;9.350;2023-08-06T14:19:02;19.00;99.90
14670;DHT22;7423;48.722;9.350;2023-08-06T14:21:29;19.00;99.90
14670;DHT22;7423;48.722;9.350;2023-08-06T14:23:56;19.00;99.90
14670;DHT22;7423;48.722;9.350;2023-08-06T14:26:23;19.00;99.90
14670;DHT22;7423;48.722;9.350;2023-08-06T14:28:50;19.00;99.90
14670;DHT22;7423;48.722;9.350;2023-08-06T14:31:20;18.90;99.90
14670;DHT22;7423;48.722;9.350;2023-08-06T14:33:47;18.90;99.90
14670;DHT22;7423;48.722;9.350;2023-08-06T14:36:14;18.90;99.90
14670;DHT22;7423;48.722;9.350;2023-08-06T14:38:41;18.90;99.90
14670;DHT22;7423;48.722;9.350;2023-08-06T14:41:24;18.90;99.90
14670;DHT22;7423;48.722;9.350;2023-08-06T14:43:51;18.90;99.90
14670;DHT22;7423;48.722;9.350;2023-08-06T14:46:19;19.00;99.90
14670;DHT22;7423;48.722;9.350;2023-08-06T14:48:46;19.00;99.90
14670;DHT22;7423;48.722;9.350;2023-08-06T14:51:13;18.90;99.90
14670;DHT22;7423;48.722;9.350;2023-08-06T14:53:40;19.00;99.90
14670;DHT22;7423;48.722;9.350;2023-08-06T14:56:07;18.90;99.90
14670;DHT22;7423;48.722;9.350;2023-08-06T14:58:34;19.00;99.90
14670;DHT22;7423;48.722;9.350;2023-08-06T15:01:01;19.00;99.90
14670;DHT22;7423;48.722;9.350;2023-08-06T15:03:28;18.80;99.90
14670;DHT22;7423;48.722;9.350;2023-08-06T15:05:54;18.60;99.90
14670;DHT22;7423;48.722;9.350;2023-08-06T15:08:21;18.60;99.90
14670;DHT22;7423;48.722;9.350;2023-08-06T15:10:52;18.60;99.90
14670;DHT22;7423;48.722;9.350;2023-08-06T15:13:20;18.50;99.90
14670;DHT22;7423;48.722;9.350;2023-08-06T15:15:49;18.50;99.90
14670;DHT22;7423;48.722;9.350;2023-08-06T15:18:16;18.50;99.90
14670;DHT22;7423;48.722;9.350;2023-08-06T15:20:43;18.40;99.90
14670;DHT22;7423;48.722;9.350;2023-08-06T15:23:10;18.60;99.90
14670;DHT22;7423;48.722;9.350;2023-08-06T15:25:37;18.50;99.90
14670;DHT22;7423;48.722;9.350;2023-08-06T15:28:04;18.40;99.90
14670;DHT22;7423;48.722;9.350;2023-08-06T15:30:31;18.60;99.90
14670;DHT22;7423;48.722;9.350;2023-08-06T15:32:59;18.70;99.90
14670;DHT22;7423;48.722;9.350;2023-08-06T15:35:26;18.80;99.90
14670;DHT22;7423;48.722;9.350;2023-08-06T15:37:53;18.90;99.90
14670;DHT22;7423;48.722;9.350;2023-08-06T15:40:20;18.90;99.90
14670;DHT22;7423;48.722;9.350;2023-08-06T15:42:47;19.00;99.90
14670;DHT22;7423;48.722;9.350;2023-08-06T15:45:14;19.10;99.90
14670;DHT22;7423;48.722;9.350;2023-08-06T15:47:41;19.10;99.90
14670;DHT22;7423;48.722;9.350;2023-08-06T15:50:09;19.10;99.90
14670;DHT22;7423;48.722;9.350;2023-08-06T15:52:36;19.10;99.90
14670;DHT22;7423;48.722;9.350;2023-08-06T15:55:03;19.00;99.90
14670;DHT22;7423;48.722;9.350;2023-08-06T15:57:32;19.00;99.90
14670;DHT22;7423;48.722;9.350;2023-08-06T16:00:00;19.00;99.90
14670;DHT22;7423;48.722;9.350;2023-08-06T16:02:27;19.10;99.90
14670;DHT22;7423;48.722;9.350;2023-08-06T16:04:55;19.20;99.90